sensor_id;sensor_type;location;lat;lon;timestamp;P1;durP1;ratioP1;P2;durP2;ratioP2
57832;SDS011;43667;53.036;6.740;2022-10-31T00:02:24;43.10;;;22.23;;
57832;SDS011;43667;53.036;6.740;2022-10-31T00:04:50;33.83;;;20.30;;
57832;SDS011;43667;53.036;6.740;2022-10-31T00:07:15;52.30;;;24.88;;
57832;SDS011;43667;53.036;6.740;2022-10-31T00:09:41;49.15;;;25.13;;
57832;SDS011;43667;53.036;6.740;2022-10-31T00:12:06;52.25;;;25.05;;
57832;SDS011;43667;53.036;6.740;2022-10-31T00:14:32;51.42;;;27.23;;
57832;SDS011;43667;53.036;6.740;2022-10-31T00:16:57;53.60;;;28.10;;
57832;SDS011;43667;53.036;6.740;2022-10-31T00:19:23;41.13;;;23.83;;
57832;SDS011;43667;53.036;6.740;2022-10-31T00:21:51;47.72;;;24.27;;
57832;SDS011;43667;53.036;6.740;2022-10-31T00:24:16;40.83;;;23.63;;
57832;SDS011;43667;53.036;6.740;2022-10-31T00:26:42;41.92;;;23.33;;
57832;SDS011;43667;53.036;6.740;2022-10-31T00:29:07;39.42;;;23.50;;
57832;SDS011;43667;53.036;6.740;2022-10-31T00:31:33;41.10;;;22.80;;
57832;SDS011;43667;53.036;6.740;2022-10-31T00:33:58;48.55;;;23.75;;
57832;SDS011;43667;53.036;6.740;2022-10-31T00:36:24;41.92;;;22.23;;
57832;SDS011;43667;53.036;6.740;2022-10-31T00:38:50;41.97;;;22.48;;
57832;SDS011;43667;53.036;6.740;2022-10-31T00:41:16;49.92;;;24.40;;
57832;SDS011;43667;53.036;6.740;2022-10-31T00:43:42;55.10;;;25.92;;
57832;SDS011;43667;53.036;6.740;2022-10-31T00:46:09;47.58;;;24.00;;
57832;SDS011;43667;53.036;6.740;2022-10-31T00:48:35;52.45;;;24.33;;
57832;SDS011;43667;53.036;6.740;2022-10-31T00:51:00;38.58;;;23.05;;
57832;SDS011;43667;53.036;6.740;2022-10-31T00:53:26;40.30;;;23.55;;
57832;SDS011;43667;53.036;6.740;2022-10-31T00:55:51;43.35;;;23.60;;
57832;SDS011;43667;53.036;6.740;2022-10-31T00:58:17;50.75;;;25.38;;
57832;SDS011;43667;53.036;6.740;2022-10-31T01:00:42;52.67;;;24.10;;
57832;SDS011;43667;53.036;6.740;2022-10-31T01:03:08;42.00;;;22.90;;
57832;SDS011;43667;53.036;6.740;2022-10-31T01:05:34;47.15;;;24.50;;
57832;SDS011;43667;53.036;6.740;2022-10-31T01:07:59;41.60;;;24.42;;
57832;SDS011;43667;53.036;6.740;2022-10-31T01:10:25;43.80;;;22.65;;
57832;SDS011;43667;53.036;6.740;2022-10-31T01:12:50;34.63;;;21.30;;
57832;SDS011;43667;53.036;6.740;2022-10-31T01:15:17;37.03;;;21.00;;
57832;SDS011;43667;53.036;6.740;2022-10-31T01:17:45;40.83;;;21.95;;
57832;SDS011;43667;53.036;6.740;2022-10-31T01:20:11;42.50;;;22.38;;
57832;SDS011;43667;53.036;6.740;2022-10-31T01:22:38;43.67;;;23.60;;
57832;SDS011;43667;53.036;6.740;2022-10-31T01:25:04;37.97;;;21.15;;
57832;SDS011;43667;53.036;6.740;2022-10-31T01:27:30;47.53;;;22.70;;
57832;SDS011;43667;53.036;6.740;2022-10-31T01:29:56;41.47;;;22.08;;
57832;SDS011;43667;53.036;6.740;2022-10-31T01:32:22;40.05;;;21.45;;
57832;SDS011;43667;53.036;6.740;2022-10-31T01:34:48;41.35;;;21.60;;
57832;SDS011;43667;53.036;6.740;2022-10-31T01:37:14;41.22;;;20.45;;
57832;SDS011;43667;53.036;6.740;2022-10-31T01:39:39;38.72;;;22.02;;
57832;SDS011;43667;53.036;6.740;2022-10-31T01:42:05;35.25;;;20.38;;
57832;SDS011;43667;53.036;6.740;2022-10-31T01:49:33;34.55;;;20.83;;
57832;SDS011;43667;53.036;6.740;2022-10-31T01:52:10;33.08;;;19.90;;
57832;SDS011;43667;53.036;6.740;2022-10-31T01:54:46;39.05;;;21.75;;
57832;SDS011;43667;53.036;6.740;2022-10-31T01:57:16;34.08;;;22.42;;
57832;SDS011;43667;53.036;6.740;2022-10-31T01:59:46;39.83;;;21.85;;
57832;SDS011;43667;53.036;6.740;2022-10-31T02:02:15;42.13;;;23.27;;
57832;SDS011;43667;53.036;6.740;2022-10-31T02:04:42;43.90;;;23.70;;
57832;SDS011;43667;53.036;6.740;2022-10-31T02:07:10;36.67;;;21.88;;
57832;SDS011;43667;53.036;6.740;2022-10-31T02:09:40;36.88;;;22.30;;
57832;SDS011;43667;53.036;6.740;2022-10-31T02:12:06;40.08;;;24.08;;
57832;SDS011;43667;53.036;6.740;2022-10-31T02:14:33;35.60;;;21.52;;
57832;SDS011;43667;53.036;6.740;2022-10-31T02:17:00;35.78;;;21.83;;
57832;SDS011;43667;53.036;6.740;2022-10-31T02:19:28;46.35;;;22.70;;
57832;SDS011;43667;53.036;6.740;2022-10-31T02:22:02;40.13;;;22.70;;
57832;SDS011;43667;53.036;6.740;2022-10-31T02:24:44;40.60;;;25.35;;
57832;SDS011;43667;53.036;6.740;2022-10-31T02:27:40;40.30;;;23.93;;
57832;SDS011;43667;53.036;6.740;2022-10-31T02:30:28;42.30;;;23.95;;
57832;SDS011;43667;53.036;6.740;2022-10-31T02:36:05;41.40;;;23.38;;
57832;SDS011;43667;53.036;6.740;2022-10-31T02:44:22;31.63;;;20.08;;
57832;SDS011;43667;53.036;6.740;2022-10-31T02:47:08;39.15;;;24.05;;
57832;SDS011;43667;53.036;6.740;2022-10-31T02:52:26;36.88;;;22.98;;
57832;SDS011;43667;53.036;6.740;2022-10-31T02:54:54;35.42;;;23.50;;
57832;SDS011;43667;53.036;6.740;2022-10-31T02:57:21;49.53;;;27.45;;
57832;SDS011;43667;53.036;6.740;2022-10-31T02:59:51;36.55;;;22.02;;
57832;SDS011;43667;53.036;6.740;2022-10-31T03:05:43;37.75;;;22.67;;
57832;SDS011;43667;53.036;6.740;2022-10-31T03:10:54;33.58;;;22.40;;
57832;SDS011;43667;53.036;6.740;2022-10-31T03:13:37;34.47;;;22.48;;
57832;SDS011;43667;53.036;6.740;2022-10-31T03:16:29;39.75;;;23.52;;
57832;SDS011;43667;53.036;6.740;2022-10-31T03:19:04;35.30;;;22.20;;
57832;SDS011;43667;53.036;6.740;2022-10-31T03:24:25;37.50;;;23.30;;
57832;SDS011;43667;53.036;6.740;2022-10-31T03:26:56;40.45;;;23.25;;
57832;SDS011;43667;53.036;6.740;2022-10-31T03:29:25;33.78;;;22.67;;
57832;SDS011;43667;53.036;6.740;2022-10-31T03:32:04;29.92;;;21.08;;
57832;SDS011;43667;53.036;6.740;2022-10-31T03:34:33;43.28;;;24.95;;
57832;SDS011;43667;53.036;6.740;2022-10-31T03:37:01;42.05;;;23.30;;
57832;SDS011;43667;53.036;6.740;2022-10-31T03:39:31;42.22;;;24.50;;
57832;SDS011;43667;53.036;6.740;2022-10-31T03:42:09;47.05;;;25.13;;
57832;SDS011;43667;53.036;6.740;2022-10-31T03:44:50;33.33;;;23.00;;
57832;SDS011;43667;53.036;6.740;2022-10-31T03:47:21;42.08;;;25.30;;
57832;SDS011;43667;53.036;6.740;2022-10-31T03:49:47;52.00;;;27.65;;
57832;SDS011;43667;53.036;6.740;2022-10-31T03:52:27;29.05;;;20.65;;
57832;SDS011;43667;53.036;6.740;2022-10-31T03:55:06;46.53;;;25.10;;
57832;SDS011;43667;53.036;6.740;2022-10-31T04:00:28;43.78;;;24.45;;
57832;SDS011;43667;53.036;6.740;2022-10-31T04:02:58;37.88;;;24.13;;
57832;SDS011;43667;53.036;6.740;2022-10-31T04:05:28;40.22;;;24.20;;
57832;SDS011;43667;53.036;6.740;2022-10-31T04:07:57;40.75;;;25.08;;
57832;SDS011;43667;53.036;6.740;2022-10-31T04:10:26;44.63;;;24.30;;
57832;SDS011;43667;53.036;6.740;2022-10-31T04:12:58;34.22;;;23.65;;
57832;SDS011;43667;53.036;6.740;2022-10-31T04:15:28;37.53;;;24.25;;
57832;SDS011;43667;53.036;6.740;2022-10-31T04:17:57;50.53;;;26.85;;
57832;SDS011;43667;53.036;6.740;2022-10-31T04:20:31;43.63;;;26.60;;
57832;SDS011;43667;53.036;6.740;2022-10-31T04:23:02;63.47;;;31.92;;
57832;SDS011;43667;53.036;6.740;2022-10-31T04:25:28;59.38;;;29.65;;
57832;SDS011;43667;53.036;6.740;2022-10-31T04:27:54;47.20;;;26.02;;
57832;SDS011;43667;53.036;6.740;2022-10-31T04:30:20;60.40;;;30.15;;
57832;SDS011;43667;53.036;6.740;2022-10-31T04:32:46;46.92;;;27.50;;
57832;SDS011;43667;53.036;6.740;2022-10-31T04:35:12;48.05;;;29.33;;
57832;SDS011;43667;53.036;6.740;2022-10-31T04:37:37;40.80;;;25.58;;
57832;SDS011;43667;53.036;6.740;2022-10-31T04:40:03;32.17;;;22.83;;
57832;SDS011;43667;53.036;6.740;2022-10-31T04:42:29;43.42;;;26.73;;
57832;SDS011;43667;53.036;6.740;2022-10-31T04:44:55;41.88;;;26.48;;
57832;SDS011;43667;53.036;6.740;2022-10-31T04:47:21;39.83;;;25.33;;
57832;SDS011;43667;53.036;6.740;2022-10-31T04:49:46;44.22;;;28.15;;
57832;SDS011;43667;53.036;6.740;2022-10-31T04:52:12;49.42;;;28.77;;
57832;SDS011;43667;53.036;6.740;2022-10-31T04:54:38;46.70;;;27.55;;
57832;SDS011;43667;53.036;6.740;2022-10-31T04:57:03;52.08;;;27.90;;
57832;SDS011;43667;53.036;6.740;2022-10-31T04:59:29;47.05;;;27.75;;
57832;SDS011;43667;53.036;6.740;2022-10-31T05:01:55;58.08;;;29.45;;
57832;SDS011;43667;53.036;6.740;2022-10-31T05:04:20;50.05;;;30.45;;
57832;SDS011;43667;53.036;6.740;2022-10-31T05:06:46;41.50;;;27.17;;
57832;SDS011;43667;53.036;6.740;2022-10-31T05:09:12;52.05;;;30.45;;
57832;SDS011;43667;53.036;6.740;2022-10-31T05:11:37;44.85;;;27.85;;
57832;SDS011;43667;53.036;6.740;2022-10-31T05:14:03;56.05;;;29.17;;
57832;SDS011;43667;53.036;6.740;2022-10-31T05:16:28;40.65;;;27.15;;
57832;SDS011;43667;53.036;6.740;2022-10-31T05:18:54;33.60;;;23.52;;
57832;SDS011;43667;53.036;6.740;2022-10-31T05:21:19;50.55;;;25.77;;
57832;SDS011;43667;53.036;6.740;2022-10-31T05:23:45;49.90;;;26.75;;
57832;SDS011;43667;53.036;6.740;2022-10-31T05:26:11;45.58;;;24.27;;
57832;SDS011;43667;53.036;6.740;2022-10-31T05:28:36;33.60;;;20.05;;
57832;SDS011;43667;53.036;6.740;2022-10-31T05:31:02;37.70;;;21.60;;
57832;SDS011;43667;53.036;6.740;2022-10-31T05:33:27;36.60;;;21.70;;
57832;SDS011;43667;53.036;6.740;2022-10-31T05:35:53;29.55;;;20.55;;
57832;SDS011;43667;53.036;6.740;2022-10-31T05:38:19;33.85;;;22.15;;
57832;SDS011;43667;53.036;6.740;2022-10-31T05:40:44;44.83;;;26.20;;
57832;SDS011;43667;53.036;6.740;2022-10-31T05:43:10;59.17;;;29.65;;
57832;SDS011;43667;53.036;6.740;2022-10-31T05:45:36;46.58;;;29.33;;
57832;SDS011;43667;53.036;6.740;2022-10-31T05:48:01;41.25;;;27.65;;
57832;SDS011;43667;53.036;6.740;2022-10-31T05:50:28;54.00;;;29.92;;
57832;SDS011;43667;53.036;6.740;2022-10-31T05:52:59;54.45;;;29.65;;
57832;SDS011;43667;53.036;6.740;2022-10-31T05:55:26;63.47;;;32.03;;
57832;SDS011;43667;53.036;6.740;2022-10-31T05:57:53;47.67;;;27.45;;
57832;SDS011;43667;53.036;6.740;2022-10-31T06:00:20;32.95;;;22.38;;
57832;SDS011;43667;53.036;6.740;2022-10-31T06:02:46;42.40;;;24.60;;
57832;SDS011;43667;53.036;6.740;2022-10-31T06:05:12;38.17;;;23.60;;
57832;SDS011;43667;53.036;6.740;2022-10-31T06:07:38;40.05;;;24.05;;
57832;SDS011;43667;53.036;6.740;2022-10-31T06:10:05;58.95;;;30.15;;
57832;SDS011;43667;53.036;6.740;2022-10-31T06:12:31;114.35;;;37.63;;
57832;SDS011;43667;53.036;6.740;2022-10-31T06:15:02;59.08;;;26.83;;
57832;SDS011;43667;53.036;6.740;2022-10-31T06:17:29;37.83;;;22.90;;
57832;SDS011;43667;53.036;6.740;2022-10-31T06:19:55;37.92;;;22.15;;
57832;SDS011;43667;53.036;6.740;2022-10-31T06:22:20;39.10;;;22.00;;
57832;SDS011;43667;53.036;6.740;2022-10-31T06:24:46;37.10;;;24.52;;
57832;SDS011;43667;53.036;6.740;2022-10-31T06:27:11;34.55;;;21.77;;
57832;SDS011;43667;53.036;6.740;2022-10-31T06:29:37;34.40;;;22.67;;
57832;SDS011;43667;53.036;6.740;2022-10-31T06:32:02;38.60;;;24.77;;
57832;SDS011;43667;53.036;6.740;2022-10-31T06:34:28;38.28;;;22.70;;
57832;SDS011;43667;53.036;6.740;2022-10-31T06:36:53;46.75;;;26.27;;
57832;SDS011;43667;53.036;6.740;2022-10-31T06:39:19;40.42;;;24.48;;
57832;SDS011;43667;53.036;6.740;2022-10-31T06:41:46;37.72;;;23.90;;
57832;SDS011;43667;53.036;6.740;2022-10-31T06:44:13;42.03;;;24.60;;
57832;SDS011;43667;53.036;6.740;2022-10-31T06:46:38;44.15;;;25.52;;
57832;SDS011;43667;53.036;6.740;2022-10-31T06:49:04;33.78;;;20.77;;
57832;SDS011;43667;53.036;6.740;2022-10-31T06:51:30;35.03;;;22.42;;
57832;SDS011;43667;53.036;6.740;2022-10-31T06:53:55;34.47;;;21.92;;
57832;SDS011;43667;53.036;6.740;2022-10-31T06:56:21;32.28;;;21.58;;
57832;SDS011;43667;53.036;6.740;2022-10-31T06:58:46;35.20;;;23.70;;
57832;SDS011;43667;53.036;6.740;2022-10-31T07:01:12;41.08;;;25.08;;
57832;SDS011;43667;53.036;6.740;2022-10-31T07:03:37;42.55;;;26.98;;
57832;SDS011;43667;53.036;6.740;2022-10-31T07:06:03;38.47;;;24.00;;
57832;SDS011;43667;53.036;6.740;2022-10-31T07:08:29;34.00;;;21.25;;
57832;SDS011;43667;53.036;6.740;2022-10-31T07:10:55;35.58;;;20.27;;
57832;SDS011;43667;53.036;6.740;2022-10-31T07:13:23;33.25;;;23.35;;
57832;SDS011;43667;53.036;6.740;2022-10-31T07:15:52;35.05;;;23.38;;
57832;SDS011;43667;53.036;6.740;2022-10-31T07:18:20;60.13;;;33.20;;
57832;SDS011;43667;53.036;6.740;2022-10-31T07:20:46;46.55;;;25.67;;
57832;SDS011;43667;53.036;6.740;2022-10-31T07:23:12;41.72;;;22.42;;
57832;SDS011;43667;53.036;6.740;2022-10-31T07:25:38;26.25;;;17.38;;
57832;SDS011;43667;53.036;6.740;2022-10-31T07:28:04;17.00;;;14.07;;
57832;SDS011;43667;53.036;6.740;2022-10-31T07:30:30;26.15;;;16.38;;
57832;SDS011;43667;53.036;6.740;2022-10-31T07:32:56;29.13;;;18.98;;
57832;SDS011;43667;53.036;6.740;2022-10-31T07:35:23;22.70;;;16.55;;
57832;SDS011;43667;53.036;6.740;2022-10-31T07:37:50;24.95;;;18.05;;
57832;SDS011;43667;53.036;6.740;2022-10-31T07:40:16;24.45;;;19.42;;
57832;SDS011;43667;53.036;6.740;2022-10-31T07:42:43;28.10;;;20.52;;
57832;SDS011;43667;53.036;6.740;2022-10-31T07:45:11;35.45;;;25.35;;
57832;SDS011;43667;53.036;6.740;2022-10-31T07:47:42;34.47;;;25.67;;
57832;SDS011;43667;53.036;6.740;2022-10-31T07:50:17;44.55;;;27.13;;
57832;SDS011;43667;53.036;6.740;2022-10-31T07:52:46;36.55;;;26.45;;
57832;SDS011;43667;53.036;6.740;2022-10-31T07:55:12;38.90;;;27.25;;
57832;SDS011;43667;53.036;6.740;2022-10-31T07:57:39;34.60;;;26.38;;
57832;SDS011;43667;53.036;6.740;2022-10-31T08:00:06;41.67;;;26.15;;
57832;SDS011;43667;53.036;6.740;2022-10-31T08:02:33;29.35;;;24.00;;
57832;SDS011;43667;53.036;6.740;2022-10-31T08:04:59;31.45;;;23.15;;
57832;SDS011;43667;53.036;6.740;2022-10-31T08:07:26;31.85;;;23.85;;
57832;SDS011;43667;53.036;6.740;2022-10-31T08:09:53;28.52;;;20.88;;
57832;SDS011;43667;53.036;6.740;2022-10-31T08:12:18;31.58;;;20.90;;
57832;SDS011;43667;53.036;6.740;2022-10-31T08:14:44;28.80;;;20.60;;
57832;SDS011;43667;53.036;6.740;2022-10-31T08:17:10;25.85;;;20.73;;
57832;SDS011;43667;53.036;6.740;2022-10-31T08:19:36;21.98;;;19.33;;
57832;SDS011;43667;53.036;6.740;2022-10-31T08:22:01;28.65;;;22.63;;
57832;SDS011;43667;53.036;6.740;2022-10-31T08:24:27;33.03;;;25.73;;
57832;SDS011;43667;53.036;6.740;2022-10-31T08:26:53;23.95;;;21.52;;
57832;SDS011;43667;53.036;6.740;2022-10-31T08:29:18;39.22;;;29.30;;
57832;SDS011;43667;53.036;6.740;2022-10-31T08:31:44;26.58;;;23.73;;
57832;SDS011;43667;53.036;6.740;2022-10-31T08:34:09;32.53;;;27.60;;
57832;SDS011;43667;53.036;6.740;2022-10-31T08:36:35;34.67;;;28.52;;
57832;SDS011;43667;53.036;6.740;2022-10-31T08:39:01;22.50;;;20.30;;
57832;SDS011;43667;53.036;6.740;2022-10-31T08:41:27;28.70;;;24.50;;
57832;SDS011;43667;53.036;6.740;2022-10-31T08:43:53;23.77;;;21.50;;
57832;SDS011;43667;53.036;6.740;2022-10-31T08:46:18;25.08;;;22.48;;
57832;SDS011;43667;53.036;6.740;2022-10-31T08:48:44;28.77;;;24.27;;
57832;SDS011;43667;53.036;6.740;2022-10-31T08:51:12;23.73;;;20.42;;
57832;SDS011;43667;53.036;6.740;2022-10-31T08:53:37;24.30;;;20.60;;
57832;SDS011;43667;53.036;6.740;2022-10-31T08:56:03;26.10;;;21.90;;
57832;SDS011;43667;53.036;6.740;2022-10-31T08:58:30;24.13;;;20.20;;
57832;SDS011;43667;53.036;6.740;2022-10-31T09:00:55;28.67;;;23.20;;
57832;SDS011;43667;53.036;6.740;2022-10-31T09:03:24;22.52;;;20.13;;
57832;SDS011;43667;53.036;6.740;2022-10-31T09:05:54;21.92;;;19.35;;
57832;SDS011;43667;53.036;6.740;2022-10-31T09:08:21;29.05;;;22.65;;
57832;SDS011;43667;53.036;6.740;2022-10-31T09:10:47;28.25;;;22.63;;
57832;SDS011;43667;53.036;6.740;2022-10-31T09:13:14;28.90;;;23.75;;
57832;SDS011;43667;53.036;6.740;2022-10-31T09:15:41;37.50;;;25.50;;
57832;SDS011;43667;53.036;6.740;2022-10-31T09:18:09;28.23;;;23.90;;
57832;SDS011;43667;53.036;6.740;2022-10-31T09:20:36;27.58;;;23.52;;
57832;SDS011;43667;53.036;6.740;2022-10-31T09:23:03;27.42;;;22.80;;
57832;SDS011;43667;53.036;6.740;2022-10-31T09:25:32;22.73;;;20.27;;
57832;SDS011;43667;53.036;6.740;2022-10-31T09:28:00;25.40;;;21.35;;
57832;SDS011;43667;53.036;6.740;2022-10-31T09:30:26;24.92;;;19.60;;
57832;SDS011;43667;53.036;6.740;2022-10-31T09:32:57;25.50;;;19.63;;
57832;SDS011;43667;53.036;6.740;2022-10-31T09:35:24;28.08;;;20.92;;
57832;SDS011;43667;53.036;6.740;2022-10-31T09:37:57;29.25;;;22.08;;
57832;SDS011;43667;53.036;6.740;2022-10-31T09:40:27;23.80;;;17.08;;
57832;SDS011;43667;53.036;6.740;2022-10-31T09:46:04;24.88;;;18.95;;
57832;SDS011;43667;53.036;6.740;2022-10-31T09:51:33;21.23;;;16.27;;
57832;SDS011;43667;53.036;6.740;2022-10-31T09:54:04;22.90;;;16.73;;
57832;SDS011;43667;53.036;6.740;2022-10-31T09:56:35;21.88;;;17.05;;
57832;SDS011;43667;53.036;6.740;2022-10-31T09:59:03;22.42;;;18.13;;
57832;SDS011;43667;53.036;6.740;2022-10-31T10:01:53;25.95;;;18.02;;
57832;SDS011;43667;53.036;6.740;2022-10-31T10:04:29;20.83;;;16.13;;
57832;SDS011;43667;53.036;6.740;2022-10-31T10:06:56;20.83;;;16.60;;
57832;SDS011;43667;53.036;6.740;2022-10-31T10:09:26;22.45;;;16.15;;
57832;SDS011;43667;53.036;6.740;2022-10-31T10:15:35;21.23;;;15.30;;
57832;SDS011;43667;53.036;6.740;2022-10-31T10:20:59;23.02;;;15.93;;
57832;SDS011;43667;53.036;6.740;2022-10-31T10:26:16;23.88;;;15.90;;
57832;SDS011;43667;53.036;6.740;2022-10-31T10:28:52;22.92;;;15.65;;
57832;SDS011;43667;53.036;6.740;2022-10-31T10:31:23;24.13;;;15.43;;
57832;SDS011;43667;53.036;6.740;2022-10-31T10:36:30;17.27;;;14.65;;
57832;SDS011;43667;53.036;6.740;2022-10-31T10:39:17;22.20;;;14.63;;
57832;SDS011;43667;53.036;6.740;2022-10-31T10:41:48;17.45;;;14.32;;
57832;SDS011;43667;53.036;6.740;2022-10-31T10:44:33;20.17;;;15.02;;
57832;SDS011;43667;53.036;6.740;2022-10-31T10:47:20;20.63;;;14.20;;
57832;SDS011;43667;53.036;6.740;2022-10-31T10:50:16;18.00;;;12.93;;
57832;SDS011;43667;53.036;6.740;2022-10-31T10:55:36;19.97;;;13.97;;
57832;SDS011;43667;53.036;6.740;2022-10-31T10:58:09;15.00;;;11.13;;
57832;SDS011;43667;53.036;6.740;2022-10-31T11:00:37;18.00;;;11.88;;
57832;SDS011;43667;53.036;6.740;2022-10-31T11:03:05;18.15;;;11.65;;
57832;SDS011;43667;53.036;6.740;2022-10-31T11:05:48;18.25;;;11.60;;
57832;SDS011;43667;53.036;6.740;2022-10-31T11:08:28;21.67;;;11.27;;
57832;SDS011;43667;53.036;6.740;2022-10-31T11:10:56;17.45;;;12.10;;
57832;SDS011;43667;53.036;6.740;2022-10-31T11:13:23;14.60;;;10.50;;
57832;SDS011;43667;53.036;6.740;2022-10-31T11:15:51;13.45;;;9.63;;
57832;SDS011;43667;53.036;6.740;2022-10-31T11:18:22;12.13;;;9.55;;
57832;SDS011;43667;53.036;6.740;2022-10-31T11:20:52;14.00;;;9.32;;
57832;SDS011;43667;53.036;6.740;2022-10-31T11:23:20;13.15;;;8.65;;
57832;SDS011;43667;53.036;6.740;2022-10-31T11:25:51;13.48;;;9.32;;
57832;SDS011;43667;53.036;6.740;2022-10-31T11:28:18;13.75;;;8.18;;
57832;SDS011;43667;53.036;6.740;2022-10-31T11:30:54;12.93;;;7.30;;
57832;SDS011;43667;53.036;6.740;2022-10-31T11:35:55;10.30;;;7.40;;
57832;SDS011;43667;53.036;6.740;2022-10-31T11:38:23;12.52;;;8.27;;
57832;SDS011;43667;53.036;6.740;2022-10-31T11:40:51;15.00;;;8.98;;
57832;SDS011;43667;53.036;6.740;2022-10-31T11:43:28;14.88;;;9.82;;
57832;SDS011;43667;53.036;6.740;2022-10-31T11:45:54;16.67;;;9.70;;
57832;SDS011;43667;53.036;6.740;2022-10-31T11:48:23;16.00;;;9.60;;
57832;SDS011;43667;53.036;6.740;2022-10-31T11:50:56;13.95;;;10.85;;
57832;SDS011;43667;53.036;6.740;2022-10-31T11:53:26;15.10;;;9.73;;
57832;SDS011;43667;53.036;6.740;2022-10-31T11:56:04;13.88;;;10.52;;
57832;SDS011;43667;53.036;6.740;2022-10-31T11:58:35;16.60;;;10.90;;
57832;SDS011;43667;53.036;6.740;2022-10-31T12:01:01;14.57;;;10.45;;
57832;SDS011;43667;53.036;6.740;2022-10-31T12:03:33;14.63;;;10.63;;
57832;SDS011;43667;53.036;6.740;2022-10-31T12:08:48;13.68;;;10.30;;
57832;SDS011;43667;53.036;6.740;2022-10-31T12:14:01;16.60;;;10.70;;
57832;SDS011;43667;53.036;6.740;2022-10-31T12:16:56;15.68;;;9.48;;
57832;SDS011;43667;53.036;6.740;2022-10-31T12:19:36;16.23;;;10.63;;
57832;SDS011;43667;53.036;6.740;2022-10-31T12:25:19;20.02;;;11.25;;
57832;SDS011;43667;53.036;6.740;2022-10-31T12:30:58;16.80;;;11.27;;
57832;SDS011;43667;53.036;6.740;2022-10-31T12:33:37;15.85;;;10.20;;
57832;SDS011;43667;53.036;6.740;2022-10-31T12:47:05;12.85;;;8.50;;
57832;SDS011;43667;53.036;6.740;2022-10-31T12:49:51;14.68;;;8.23;;
57832;SDS011;43667;53.036;6.740;2022-10-31T12:55:14;16.50;;;8.88;;
57832;SDS011;43667;53.036;6.740;2022-10-31T12:57:51;14.43;;;8.18;;
57832;SDS011;43667;53.036;6.740;2022-10-31T13:00:29;14.93;;;8.27;;
57832;SDS011;43667;53.036;6.740;2022-10-31T13:03:17;12.65;;;8.10;;
57832;SDS011;43667;53.036;6.740;2022-10-31T13:05:54;13.02;;;8.00;;
57832;SDS011;43667;53.036;6.740;2022-10-31T13:08:29;12.52;;;8.75;;
57832;SDS011;43667;53.036;6.740;2022-10-31T13:11:11;15.35;;;10.00;;
57832;SDS011;43667;53.036;6.740;2022-10-31T13:13:58;14.82;;;9.38;;
57832;SDS011;43667;53.036;6.740;2022-10-31T13:16:45;13.45;;;8.85;;
57832;SDS011;43667;53.036;6.740;2022-10-31T13:21:55;12.90;;;7.28;;
57832;SDS011;43667;53.036;6.740;2022-10-31T13:24:40;12.90;;;7.97;;
57832;SDS011;43667;53.036;6.740;2022-10-31T13:27:22;13.38;;;6.85;;
57832;SDS011;43667;53.036;6.740;2022-10-31T13:29:56;11.27;;;6.43;;
57832;SDS011;43667;53.036;6.740;2022-10-31T13:35:24;18.38;;;8.15;;
57832;SDS011;43667;53.036;6.740;2022-10-31T13:37:56;13.63;;;6.75;;
57832;SDS011;43667;53.036;6.740;2022-10-31T13:40:44;13.23;;;7.07;;
57832;SDS011;43667;53.036;6.740;2022-10-31T13:43:28;12.48;;;7.53;;
57832;SDS011;43667;53.036;6.740;2022-10-31T13:46:20;14.57;;;7.18;;
57832;SDS011;43667;53.036;6.740;2022-10-31T13:48:49;11.68;;;6.25;;
57832;SDS011;43667;53.036;6.740;2022-10-31T13:51:23;13.35;;;7.13;;
57832;SDS011;43667;53.036;6.740;2022-10-31T13:59:04;14.82;;;7.30;;
57832;SDS011;43667;53.036;6.740;2022-10-31T14:01:33;15.25;;;7.47;;
57832;SDS011;43667;53.036;6.740;2022-10-31T14:09:24;13.70;;;7.68;;
57832;SDS011;43667;53.036;6.740;2022-10-31T14:11:53;16.80;;;8.25;;
57832;SDS011;43667;53.036;6.740;2022-10-31T14:14:21;13.88;;;8.48;;
57832;SDS011;43667;53.036;6.740;2022-10-31T14:16:55;16.42;;;8.85;;
57832;SDS011;43667;53.036;6.740;2022-10-31T14:19:22;10.75;;;8.48;;
57832;SDS011;43667;53.036;6.740;2022-10-31T14:21:48;17.60;;;9.27;;
57832;SDS011;43667;53.036;6.740;2022-10-31T14:29:27;17.25;;;10.95;;
57832;SDS011;43667;53.036;6.740;2022-10-31T14:32:02;17.75;;;9.65;;
57832;SDS011;43667;53.036;6.740;2022-10-31T14:34:42;16.50;;;9.60;;
57832;SDS011;43667;53.036;6.740;2022-10-31T14:40:24;19.58;;;10.20;;
57832;SDS011;43667;53.036;6.740;2022-10-31T14:45:58;16.27;;;10.23;;
57832;SDS011;43667;53.036;6.740;2022-10-31T14:51:25;13.70;;;8.38;;
57832;SDS011;43667;53.036;6.740;2022-10-31T14:53:58;15.40;;;9.45;;
57832;SDS011;43667;53.036;6.740;2022-10-31T14:56:29;14.32;;;8.32;;
57832;SDS011;43667;53.036;6.740;2022-10-31T14:59:01;15.93;;;9.23;;
57832;SDS011;43667;53.036;6.740;2022-10-31T15:01:31;13.38;;;7.78;;
57832;SDS011;43667;53.036;6.740;2022-10-31T15:06:44;10.98;;;6.75;;
57832;SDS011;43667;53.036;6.740;2022-10-31T15:09:22;12.00;;;6.03;;
57832;SDS011;43667;53.036;6.740;2022-10-31T15:11:50;11.38;;;5.65;;
57832;SDS011;43667;53.036;6.740;2022-10-31T15:14:22;15.23;;;5.43;;
57832;SDS011;43667;53.036;6.740;2022-10-31T15:16:49;12.40;;;4.30;;
57832;SDS011;43667;53.036;6.740;2022-10-31T15:19:17;11.13;;;4.88;;
57832;SDS011;43667;53.036;6.740;2022-10-31T15:21:49;12.30;;;4.50;;
57832;SDS011;43667;53.036;6.740;2022-10-31T15:24:16;8.25;;;3.92;;
57832;SDS011;43667;53.036;6.740;2022-10-31T15:26:53;13.13;;;3.88;;
57832;SDS011;43667;53.036;6.740;2022-10-31T15:29:23;13.63;;;3.72;;
57832;SDS011;43667;53.036;6.740;2022-10-31T15:31:57;8.52;;;3.63;;
57832;SDS011;43667;53.036;6.740;2022-10-31T15:34:41;10.02;;;3.58;;
57832;SDS011;43667;53.036;6.740;2022-10-31T15:37:11;12.02;;;4.20;;
57832;SDS011;43667;53.036;6.740;2022-10-31T15:39:38;11.77;;;3.40;;
57832;SDS011;43667;53.036;6.740;2022-10-31T15:42:04;9.77;;;3.60;;
57832;SDS011;43667;53.036;6.740;2022-10-31T15:45:32;9.88;;;3.95;;
57832;SDS011;43667;53.036;6.740;2022-10-31T15:47:38;11.60;;;4.05;;
57832;SDS011;43667;53.036;6.740;2022-10-31T15:50:20;14.68;;;4.70;;
57832;SDS011;43667;53.036;6.740;2022-10-31T15:52:56;10.07;;;4.53;;
57832;SDS011;43667;53.036;6.740;2022-10-31T15:55:24;9.13;;;4.70;;
57832;SDS011;43667;53.036;6.740;2022-10-31T15:57:54;9.55;;;4.75;;
57832;SDS011;43667;53.036;6.740;2022-10-31T16:03:03;8.02;;;5.78;;
57832;SDS011;43667;53.036;6.740;2022-10-31T16:05:34;12.65;;;6.47;;
57832;SDS011;43667;53.036;6.740;2022-10-31T16:13:33;10.63;;;6.38;;
57832;SDS011;43667;53.036;6.740;2022-10-31T16:16:01;12.60;;;6.63;;
57832;SDS011;43667;53.036;6.740;2022-10-31T16:18:30;11.02;;;7.28;;
57832;SDS011;43667;53.036;6.740;2022-10-31T16:21:02;10.07;;;7.05;;
57832;SDS011;43667;53.036;6.740;2022-10-31T16:23:28;12.90;;;6.93;;
57832;SDS011;43667;53.036;6.740;2022-10-31T16:25:54;12.75;;;8.90;;
57832;SDS011;43667;53.036;6.740;2022-10-31T16:28:21;13.50;;;8.60;;
57832;SDS011;43667;53.036;6.740;2022-10-31T16:30:49;10.30;;;8.23;;
57832;SDS011;43667;53.036;6.740;2022-10-31T16:33:27;12.98;;;8.80;;
57832;SDS011;43667;53.036;6.740;2022-10-31T16:35:56;14.15;;;8.48;;
57832;SDS011;43667;53.036;6.740;2022-10-31T16:38:22;13.40;;;9.23;;
57832;SDS011;43667;53.036;6.740;2022-10-31T16:40:49;15.52;;;8.88;;